Gravette, AR (72736)

3:04 PM CDT on August 26, 2016 (GMT -0500)
| | Change Station

Elev -9999 ft 0.00 °N, 0.00 °E | Updated

Mostly Cloudy
Mostly Cloudy
75 °F
Feels Like 75 °F
N
7
Wind Variable Wind from SSE
Gusts mph

Today
High -- | Low -- °F
--% Chance of Precip.
Yesterday
High -- | Low -- °F
Precip. -- in
Pressure 30.05 in
Visibility 6.0 miles
Clouds Few 700 ft
Scattered Clouds 8500 ft
Overcast 11000 ft
Dew Point 67 °F
Humidity 76%
Rainfall --
Snow Depth Not available.
6:44 AM 7:53 PM
Waning Crescent, 31% visible
METAR KXNA 261953Z 21006KT 6SM VCTS -RA BR FEW007 SCT085 OVC110 23/22 A3009 RMK AO2 LTG DSNT SE TSB05E34 SLP175 P0009 T02280222
Pressure 30.05 in
Visibility 6.0 miles
Clouds Few 700 ft
Scattered Clouds 8500 ft
Overcast 11000 ft
Dew Point 67 °F
Humidity 76%
Rainfall --
Snow Depth Not available.
6:44 AM 7:53 PM
Waning Crescent, 31% visible
METAR KXNA 261953Z 21006KT 6SM VCTS -RA BR FEW007 SCT085 OVC110 23/22 A3009 RMK AO2 LTG DSNT SE TSB05E34 SLP175 P0009 T02280222

10-Day Weather Forecast

Almanac

Astronomy

Aug. 26, 2016 Rise Set
Actual Time
Civil Twilight
Nautical Twilight
Astronomical Twilight
Moon
Length of Visible Light
Length of Day
Tomorrow will be .
, % of the Moon is Illuminated

Today's Extremes

State Highs State Lows

Community

WunderPhotos

Upload Photos

1,935,191 photos uploaded!

WunderBlog® & News

Nearby

Air Quality

  Air Quality AQ Index Pollutant
Not available.

Snow Depth

Station Depth Elevation

Earthquake Activity

City Distance Mag. Time & Date
Minimum magnitude displayed is 2.5.

Coastal Water Temperatures

Place Temperature

Stations

Nearby Weather Stations

Station Location Temp. Windchill Dew Point Humidity Wind Precip. Elev Updated Type
                   

Watches & Warnings

There are currently no watches in effect.